sensor_id;sensor_type;location;lat;lon;timestamp;P1;durP1;ratioP1;P2;durP2;ratioP2
5355;SDS011;70449;52.486;13.386;2024-01-15T00:00:18;13.83;;;6.77;;
5355;SDS011;70449;52.486;13.386;2024-01-15T00:02:46;10.37;;;7.20;;
5355;SDS011;70449;52.486;13.386;2024-01-15T00:05:14;11.67;;;6.47;;
5355;SDS011;70449;52.486;13.386;2024-01-15T00:07:41;12.20;;;7.43;;
5355;SDS011;70449;52.486;13.386;2024-01-15T00:10:09;12.90;;;8.50;;
5355;SDS011;70449;52.486;13.386;2024-01-15T00:12:36;17.10;;;9.27;;
5355;SDS011;70449;52.486;13.386;2024-01-15T00:15:06;12.00;;;8.00;;
5355;SDS011;70449;52.486;13.386;2024-01-15T00:17:33;18.23;;;9.30;;
5355;SDS011;70449;52.486;13.386;2024-01-15T00:20:00;14.90;;;8.13;;
5355;SDS011;70449;52.486;13.386;2024-01-15T00:22:28;19.60;;;9.60;;
5355;SDS011;70449;52.486;13.386;2024-01-15T00:24:56;14.30;;;7.33;;
5355;SDS011;70449;52.486;13.386;2024-01-15T00:27:24;14.07;;;8.13;;
5355;SDS011;70449;52.486;13.386;2024-01-15T00:29:51;14.40;;;9.00;;
5355;SDS011;70449;52.486;13.386;2024-01-15T00:32:20;19.00;;;8.57;;
5355;SDS011;70449;52.486;13.386;2024-01-15T00:34:48;19.03;;;9.87;;
5355;SDS011;70449;52.486;13.386;2024-01-15T00:37:15;11.10;;;6.90;;
5355;SDS011;70449;52.486;13.386;2024-01-15T00:39:43;14.00;;;7.50;;
5355;SDS011;70449;52.486;13.386;2024-01-15T00:42:10;11.97;;;8.30;;
5355;SDS011;70449;52.486;13.386;2024-01-15T00:44:37;9.60;;;6.40;;
5355;SDS011;70449;52.486;13.386;2024-01-15T00:47:05;16.63;;;9.13;;
5355;SDS011;70449;52.486;13.386;2024-01-15T00:49:33;8.67;;;6.67;;
5355;SDS011;70449;52.486;13.386;2024-01-15T00:52:01;13.70;;;8.00;;
5355;SDS011;70449;52.486;13.386;2024-01-15T00:54:28;11.43;;;6.20;;
5355;SDS011;70449;52.486;13.386;2024-01-15T00:56:55;14.33;;;8.37;;
5355;SDS011;70449;52.486;13.386;2024-01-15T00:59:22;10.50;;;7.10;;
5355;SDS011;70449;52.486;13.386;2024-01-15T01:01:49;9.93;;;5.73;;
5355;SDS011;70449;52.486;13.386;2024-01-15T01:04:17;16.20;;;8.60;;
5355;SDS011;70449;52.486;13.386;2024-01-15T01:06:45;10.00;;;6.40;;
5355;SDS011;70449;52.486;13.386;2024-01-15T01:09:13;13.30;;;7.77;;
5355;SDS011;70449;52.486;13.386;2024-01-15T01:11:40;10.37;;;6.80;;
5355;SDS011;70449;52.486;13.386;2024-01-15T01:14:07;10.07;;;6.47;;
5355;SDS011;70449;52.486;13.386;2024-01-15T01:16:35;8.33;;;6.20;;
5355;SDS011;70449;52.486;13.386;2024-01-15T01:19:04;10.60;;;6.60;;
5355;SDS011;70449;52.486;13.386;2024-01-15T01:21:32;21.83;;;9.70;;
5355;SDS011;70449;52.486;13.386;2024-01-15T01:24:01;15.87;;;7.77;;
5355;SDS011;70449;52.486;13.386;2024-01-15T01:26:28;20.97;;;9.00;;
5355;SDS011;70449;52.486;13.386;2024-01-15T01:28:56;15.50;;;8.43;;
5355;SDS011;70449;52.486;13.386;2024-01-15T01:31:24;9.70;;;7.23;;
5355;SDS011;70449;52.486;13.386;2024-01-15T01:33:52;20.87;;;9.57;;
5355;SDS011;70449;52.486;13.386;2024-01-15T01:36:19;12.00;;;6.90;;
5355;SDS011;70449;52.486;13.386;2024-01-15T01:38:46;13.73;;;6.67;;
5355;SDS011;70449;52.486;13.386;2024-01-15T01:41:14;11.53;;;6.90;;
5355;SDS011;70449;52.486;13.386;2024-01-15T01:43:43;20.30;;;9.73;;
5355;SDS011;70449;52.486;13.386;2024-01-15T01:46:13;18.57;;;10.17;;
5355;SDS011;70449;52.486;13.386;2024-01-15T01:48:40;11.80;;;7.87;;
5355;SDS011;70449;52.486;13.386;2024-01-15T01:51:08;19.47;;;10.00;;
5355;SDS011;70449;52.486;13.386;2024-01-15T01:53:35;16.03;;;8.90;;
5355;SDS011;70449;52.486;13.386;2024-01-15T01:56:04;21.07;;;10.00;;
5355;SDS011;70449;52.486;13.386;2024-01-15T01:58:33;15.67;;;8.10;;
5355;SDS011;70449;52.486;13.386;2024-01-15T02:01:02;18.43;;;6.93;;
5355;SDS011;70449;52.486;13.386;2024-01-15T02:03:30;23.43;;;10.83;;
5355;SDS011;70449;52.486;13.386;2024-01-15T02:05:58;15.80;;;6.77;;
5355;SDS011;70449;52.486;13.386;2024-01-15T02:08:26;13.53;;;7.87;;
5355;SDS011;70449;52.486;13.386;2024-01-15T02:10:54;11.47;;;5.53;;
5355;SDS011;70449;52.486;13.386;2024-01-15T02:13:21;17.57;;;9.40;;
5355;SDS011;70449;52.486;13.386;2024-01-15T02:15:49;16.67;;;9.63;;
5355;SDS011;70449;52.486;13.386;2024-01-15T02:18:16;20.70;;;10.83;;
5355;SDS011;70449;52.486;13.386;2024-01-15T02:20:45;16.13;;;8.30;;
5355;SDS011;70449;52.486;13.386;2024-01-15T02:23:14;17.60;;;9.23;;
5355;SDS011;70449;52.486;13.386;2024-01-15T02:25:42;17.90;;;7.60;;
5355;SDS011;70449;52.486;13.386;2024-01-15T02:28:12;18.73;;;9.23;;
5355;SDS011;70449;52.486;13.386;2024-01-15T02:30:41;22.50;;;6.23;;
5355;SDS011;70449;52.486;13.386;2024-01-15T02:33:10;15.73;;;7.43;;
5355;SDS011;70449;52.486;13.386;2024-01-15T02:35:37;10.97;;;5.77;;
5355;SDS011;70449;52.486;13.386;2024-01-15T02:38:05;11.47;;;7.57;;
5355;SDS011;70449;52.486;13.386;2024-01-15T02:40:34;26.53;;;7.57;;
5355;SDS011;70449;52.486;13.386;2024-01-15T02:43:02;8.40;;;5.27;;
5355;SDS011;70449;52.486;13.386;2024-01-15T02:45:29;10.00;;;5.33;;
5355;SDS011;70449;52.486;13.386;2024-01-15T02:47:57;10.37;;;6.40;;
5355;SDS011;70449;52.486;13.386;2024-01-15T02:50:24;13.13;;;5.33;;
5355;SDS011;70449;52.486;13.386;2024-01-15T02:52:51;17.63;;;4.90;;
5355;SDS011;70449;52.486;13.386;2024-01-15T02:55:18;10.37;;;6.20;;
5355;SDS011;70449;52.486;13.386;2024-01-15T02:57:47;9.70;;;6.13;;
5355;SDS011;70449;52.486;13.386;2024-01-15T03:00:14;10.63;;;5.77;;
5355;SDS011;70449;52.486;13.386;2024-01-15T03:02:44;9.10;;;5.63;;
5355;SDS011;70449;52.486;13.386;2024-01-15T03:05:11;15.47;;;6.43;;
5355;SDS011;70449;52.486;13.386;2024-01-15T03:07:38;10.60;;;6.60;;
5355;SDS011;70449;52.486;13.386;2024-01-15T03:10:09;9.60;;;6.23;;
5355;SDS011;70449;52.486;13.386;2024-01-15T03:12:36;11.73;;;6.40;;
5355;SDS011;70449;52.486;13.386;2024-01-15T03:15:05;10.30;;;5.10;;
5355;SDS011;70449;52.486;13.386;2024-01-15T03:17:33;14.10;;;6.50;;
5355;SDS011;70449;52.486;13.386;2024-01-15T03:20:00;15.70;;;5.67;;
5355;SDS011;70449;52.486;13.386;2024-01-15T03:22:28;13.07;;;6.20;;
5355;SDS011;70449;52.486;13.386;2024-01-15T03:24:55;7.90;;;5.80;;
5355;SDS011;70449;52.486;13.386;2024-01-15T03:27:22;8.27;;;5.47;;
5355;SDS011;70449;52.486;13.386;2024-01-15T03:29:51;9.73;;;5.50;;
5355;SDS011;70449;52.486;13.386;2024-01-15T03:32:19;6.00;;;4.57;;
5355;SDS011;70449;52.486;13.386;2024-01-15T03:34:46;12.43;;;6.00;;
5355;SDS011;70449;52.486;13.386;2024-01-15T03:37:14;7.97;;;5.90;;
5355;SDS011;70449;52.486;13.386;2024-01-15T03:39:41;9.17;;;4.33;;
5355;SDS011;70449;52.486;13.386;2024-01-15T03:42:08;8.07;;;5.40;;
5355;SDS011;70449;52.486;13.386;2024-01-15T03:44:35;4.50;;;3.93;;
5355;SDS011;70449;52.486;13.386;2024-01-15T03:47:03;8.87;;;4.07;;
5355;SDS011;70449;52.486;13.386;2024-01-15T03:49:32;15.13;;;4.47;;
5355;SDS011;70449;52.486;13.386;2024-01-15T03:51:59;8.03;;;5.40;;
5355;SDS011;70449;52.486;13.386;2024-01-15T03:54:26;5.80;;;4.00;;
5355;SDS011;70449;52.486;13.386;2024-01-15T03:56:53;9.60;;;4.40;;
5355;SDS011;70449;52.486;13.386;2024-01-15T03:59:20;10.83;;;4.73;;
5355;SDS011;70449;52.486;13.386;2024-01-15T04:01:48;10.17;;;4.20;;
5355;SDS011;70449;52.486;13.386;2024-01-15T04:04:16;7.53;;;4.43;;
5355;SDS011;70449;52.486;13.386;2024-01-15T04:06:45;10.47;;;5.27;;
5355;SDS011;70449;52.486;13.386;2024-01-15T04:09:12;6.50;;;4.00;;
5355;SDS011;70449;52.486;13.386;2024-01-15T04:11:40;4.90;;;2.93;;
5355;SDS011;70449;52.486;13.386;2024-01-15T04:14:07;13.00;;;4.20;;
5355;SDS011;70449;52.486;13.386;2024-01-15T04:16:34;6.20;;;3.47;;
5355;SDS011;70449;52.486;13.386;2024-01-15T04:19:03;11.47;;;5.07;;
5355;SDS011;70449;52.486;13.386;2024-01-15T04:21:30;7.80;;;2.93;;
5355;SDS011;70449;52.486;13.386;2024-01-15T04:23:59;5.77;;;4.20;;
5355;SDS011;70449;52.486;13.386;2024-01-15T04:26:26;4.03;;;3.30;;
5355;SDS011;70449;52.486;13.386;2024-01-15T04:28:53;10.40;;;4.83;;
5355;SDS011;70449;52.486;13.386;2024-01-15T04:31:22;9.27;;;4.60;;
5355;SDS011;70449;52.486;13.386;2024-01-15T04:33:51;3.53;;;2.93;;
5355;SDS011;70449;52.486;13.386;2024-01-15T04:36:19;11.93;;;3.80;;
5355;SDS011;70449;52.486;13.386;2024-01-15T04:38:46;5.80;;;3.67;;
5355;SDS011;70449;52.486;13.386;2024-01-15T04:41:15;9.63;;;4.10;;
5355;SDS011;70449;52.486;13.386;2024-01-15T04:43:43;7.70;;;3.93;;
5355;SDS011;70449;52.486;13.386;2024-01-15T04:46:10;9.13;;;3.20;;
5355;SDS011;70449;52.486;13.386;2024-01-15T04:48:37;7.63;;;3.30;;
5355;SDS011;70449;52.486;13.386;2024-01-15T04:51:05;13.00;;;3.10;;
5355;SDS011;70449;52.486;13.386;2024-01-15T04:53:34;5.73;;;2.87;;
5355;SDS011;70449;52.486;13.386;2024-01-15T04:56:02;12.73;;;4.27;;
5355;SDS011;70449;52.486;13.386;2024-01-15T04:58:31;5.97;;;2.90;;
5355;SDS011;70449;52.486;13.386;2024-01-15T05:00:58;15.13;;;3.47;;
5355;SDS011;70449;52.486;13.386;2024-01-15T05:03:25;7.73;;;2.50;;
5355;SDS011;70449;52.486;13.386;2024-01-15T05:05:53;12.20;;;2.37;;
5355;SDS011;70449;52.486;13.386;2024-01-15T05:08:20;8.03;;;3.23;;
5355;SDS011;70449;52.486;13.386;2024-01-15T05:10:47;6.30;;;2.83;;
5355;SDS011;70449;52.486;13.386;2024-01-15T05:13:14;8.50;;;2.23;;
5355;SDS011;70449;52.486;13.386;2024-01-15T05:15:43;5.43;;;3.90;;
5355;SDS011;70449;52.486;13.386;2024-01-15T05:18:10;6.80;;;2.87;;
5355;SDS011;70449;52.486;13.386;2024-01-15T05:20:37;5.00;;;2.70;;
5355;SDS011;70449;52.486;13.386;2024-01-15T05:23:04;8.97;;;2.43;;
5355;SDS011;70449;52.486;13.386;2024-01-15T05:25:31;3.60;;;1.60;;
5355;SDS011;70449;52.486;13.386;2024-01-15T05:27:59;12.40;;;4.20;;
5355;SDS011;70449;52.486;13.386;2024-01-15T05:30:26;9.53;;;2.93;;
5355;SDS011;70449;52.486;13.386;2024-01-15T05:32:54;8.00;;;2.73;;
5355;SDS011;70449;52.486;13.386;2024-01-15T05:35:22;4.40;;;2.57;;
5355;SDS011;70449;52.486;13.386;2024-01-15T05:37:49;18.93;;;3.53;;
5355;SDS011;70449;52.486;13.386;2024-01-15T05:40:16;12.60;;;3.50;;
5355;SDS011;70449;52.486;13.386;2024-01-15T05:42:44;5.90;;;2.63;;
5355;SDS011;70449;52.486;13.386;2024-01-15T05:45:11;2.30;;;1.60;;
5355;SDS011;70449;52.486;13.386;2024-01-15T05:47:39;10.50;;;2.80;;
5355;SDS011;70449;52.486;13.386;2024-01-15T05:50:08;10.10;;;1.90;;
5355;SDS011;70449;52.486;13.386;2024-01-15T05:52:35;5.80;;;1.97;;
5355;SDS011;70449;52.486;13.386;2024-01-15T05:55:03;8.70;;;2.87;;
5355;SDS011;70449;52.486;13.386;2024-01-15T05:57:31;5.60;;;2.40;;
5355;SDS011;70449;52.486;13.386;2024-01-15T05:59:58;7.20;;;2.30;;
5355;SDS011;70449;52.486;13.386;2024-01-15T06:02:26;8.97;;;2.80;;
5355;SDS011;70449;52.486;13.386;2024-01-15T06:04:53;14.97;;;2.40;;
5355;SDS011;70449;52.486;13.386;2024-01-15T06:07:22;3.93;;;2.07;;
5355;SDS011;70449;52.486;13.386;2024-01-15T06:09:49;3.73;;;1.80;;
5355;SDS011;70449;52.486;13.386;2024-01-15T06:12:16;7.30;;;3.10;;
5355;SDS011;70449;52.486;13.386;2024-01-15T06:14:44;8.40;;;2.33;;
5355;SDS011;70449;52.486;13.386;2024-01-15T06:17:11;6.03;;;2.10;;
5355;SDS011;70449;52.486;13.386;2024-01-15T06:19:38;15.47;;;2.60;;
5355;SDS011;70449;52.486;13.386;2024-01-15T06:22:09;4.77;;;2.00;;
5355;SDS011;70449;52.486;13.386;2024-01-15T06:24:38;11.07;;;1.87;;
5355;SDS011;70449;52.486;13.386;2024-01-15T06:27:05;3.20;;;2.07;;
5355;SDS011;70449;52.486;13.386;2024-01-15T06:29:32;6.67;;;3.03;;
5355;SDS011;70449;52.486;13.386;2024-01-15T06:32:02;5.13;;;2.40;;
5355;SDS011;70449;52.486;13.386;2024-01-15T06:34:30;5.23;;;2.03;;
5355;SDS011;70449;52.486;13.386;2024-01-15T06:36:58;1.53;;;1.43;;
5355;SDS011;70449;52.486;13.386;2024-01-15T06:39:25;6.70;;;2.47;;
5355;SDS011;70449;52.486;13.386;2024-01-15T06:41:54;14.97;;;2.50;;
5355;SDS011;70449;52.486;13.386;2024-01-15T06:44:22;12.03;;;2.60;;
5355;SDS011;70449;52.486;13.386;2024-01-15T06:46:49;6.87;;;2.40;;
5355;SDS011;70449;52.486;13.386;2024-01-15T06:49:16;7.77;;;2.07;;
5355;SDS011;70449;52.486;13.386;2024-01-15T06:51:44;6.20;;;2.33;;
5355;SDS011;70449;52.486;13.386;2024-01-15T06:54:11;7.43;;;2.67;;
5355;SDS011;70449;52.486;13.386;2024-01-15T06:56:38;11.40;;;2.33;;
5355;SDS011;70449;52.486;13.386;2024-01-15T06:59:07;2.63;;;2.10;;
5355;SDS011;70449;52.486;13.386;2024-01-15T07:01:34;4.23;;;2.20;;
5355;SDS011;70449;52.486;13.386;2024-01-15T07:04:02;3.60;;;1.57;;
5355;SDS011;70449;52.486;13.386;2024-01-15T07:06:29;5.80;;;1.90;;
5355;SDS011;70449;52.486;13.386;2024-01-15T07:08:56;2.27;;;1.40;;
5355;SDS011;70449;52.486;13.386;2024-01-15T07:11:24;11.30;;;2.07;;
5355;SDS011;70449;52.486;13.386;2024-01-15T07:13:51;6.93;;;1.37;;
5355;SDS011;70449;52.486;13.386;2024-01-15T07:16:20;7.83;;;2.00;;
5355;SDS011;70449;52.486;13.386;2024-01-15T07:18:47;2.93;;;1.80;;
5355;SDS011;70449;52.486;13.386;2024-01-15T07:21:14;5.80;;;2.07;;
5355;SDS011;70449;52.486;13.386;2024-01-15T07:23:41;8.33;;;2.20;;
5355;SDS011;70449;52.486;13.386;2024-01-15T07:26:09;9.80;;;2.03;;
5355;SDS011;70449;52.486;13.386;2024-01-15T07:28:36;12.87;;;2.07;;
5355;SDS011;70449;52.486;13.386;2024-01-15T07:31:03;6.10;;;2.00;;
5355;SDS011;70449;52.486;13.386;2024-01-15T07:33:33;4.83;;;2.23;;
5355;SDS011;70449;52.486;13.386;2024-01-15T07:36:00;8.93;;;1.63;;
5355;SDS011;70449;52.486;13.386;2024-01-15T07:38:28;4.40;;;1.53;;
5355;SDS011;70449;52.486;13.386;2024-01-15T07:40:55;5.80;;;2.00;;
5355;SDS011;70449;52.486;13.386;2024-01-15T07:43:22;7.03;;;2.20;;
5355;SDS011;70449;52.486;13.386;2024-01-15T07:45:49;2.83;;;1.40;;
5355;SDS011;70449;52.486;13.386;2024-01-15T07:48:17;11.03;;;1.67;;
5355;SDS011;70449;52.486;13.386;2024-01-15T07:50:46;8.63;;;2.10;;
5355;SDS011;70449;52.486;13.386;2024-01-15T07:53:13;4.40;;;1.77;;
5355;SDS011;70449;52.486;13.386;2024-01-15T07:55:41;3.90;;;1.30;;
5355;SDS011;70449;52.486;13.386;2024-01-15T07:58:08;5.83;;;2.30;;
5355;SDS011;70449;52.486;13.386;2024-01-15T08:00:35;13.83;;;2.33;;
5355;SDS011;70449;52.486;13.386;2024-01-15T08:03:02;3.07;;;1.97;;
5355;SDS011;70449;52.486;13.386;2024-01-15T08:05:31;9.37;;;1.80;;
5355;SDS011;70449;52.486;13.386;2024-01-15T08:08:00;4.93;;;1.77;;
5355;SDS011;70449;52.486;13.386;2024-01-15T08:10:27;11.33;;;1.93;;
5355;SDS011;70449;52.486;13.386;2024-01-15T08:12:54;3.23;;;1.50;;
5355;SDS011;70449;52.486;13.386;2024-01-15T08:15:22;6.23;;;1.87;;
5355;SDS011;70449;52.486;13.386;2024-01-15T08:17:49;4.00;;;1.43;;
5355;SDS011;70449;52.486;13.386;2024-01-15T08:20:16;15.20;;;2.20;;
5355;SDS011;70449;52.486;13.386;2024-01-15T08:22:44;5.30;;;1.87;;
5355;SDS011;70449;52.486;13.386;2024-01-15T08:25:13;6.43;;;2.13;;
5355;SDS011;70449;52.486;13.386;2024-01-15T08:27:41;7.37;;;1.77;;
5355;SDS011;70449;52.486;13.386;2024-01-15T08:30:09;2.53;;;1.30;;
5355;SDS011;70449;52.486;13.386;2024-01-15T08:32:37;6.20;;;1.83;;
5355;SDS011;70449;52.486;13.386;2024-01-15T08:35:07;9.23;;;3.13;;
5355;SDS011;70449;52.486;13.386;2024-01-15T08:37:34;9.70;;;2.80;;
5355;SDS011;70449;52.486;13.386;2024-01-15T08:40:02;2.20;;;1.53;;
5355;SDS011;70449;52.486;13.386;2024-01-15T08:42:31;10.23;;;2.03;;
5355;SDS011;70449;52.486;13.386;2024-01-15T08:44:58;11.50;;;1.97;;
5355;SDS011;70449;52.486;13.386;2024-01-15T08:47:26;21.23;;;2.70;;
5355;SDS011;70449;52.486;13.386;2024-01-15T08:49:54;5.80;;;2.30;;
5355;SDS011;70449;52.486;13.386;2024-01-15T08:52:21;3.00;;;1.90;;
5355;SDS011;70449;52.486;13.386;2024-01-15T08:54:48;6.93;;;1.90;;
5355;SDS011;70449;52.486;13.386;2024-01-15T08:57:18;3.73;;;1.40;;
5355;SDS011;70449;52.486;13.386;2024-01-15T08:59:48;4.33;;;1.83;;
5355;SDS011;70449;52.486;13.386;2024-01-15T09:02:16;16.70;;;2.03;;
5355;SDS011;70449;52.486;13.386;2024-01-15T09:04:44;3.67;;;1.50;;
5355;SDS011;70449;52.486;13.386;2024-01-15T09:07:11;17.13;;;2.20;;
5355;SDS011;70449;52.486;13.386;2024-01-15T09:09:38;3.43;;;1.13;;
5355;SDS011;70449;52.486;13.386;2024-01-15T09:12:07;14.27;;;2.33;;
5355;SDS011;70449;52.486;13.386;2024-01-15T09:14:35;14.77;;;2.60;;
5355;SDS011;70449;52.486;13.386;2024-01-15T09:17:05;1.37;;;1.27;;
5355;SDS011;70449;52.486;13.386;2024-01-15T09:19:32;15.33;;;1.90;;
5355;SDS011;70449;52.486;13.386;2024-01-15T09:21:59;11.20;;;1.83;;
5355;SDS011;70449;52.486;13.386;2024-01-15T09:24:26;12.63;;;2.40;;
5355;SDS011;70449;52.486;13.386;2024-01-15T09:26:54;7.40;;;1.70;;
5355;SDS011;70449;52.486;13.386;2024-01-15T09:29:21;5.87;;;1.60;;
5355;SDS011;70449;52.486;13.386;2024-01-15T09:31:49;16.70;;;1.80;;
5355;SDS011;70449;52.486;13.386;2024-01-15T09:34:18;8.23;;;2.30;;
5355;SDS011;70449;52.486;13.386;2024-01-15T09:36:45;4.77;;;1.63;;
5355;SDS011;70449;52.486;13.386;2024-01-15T09:39:14;7.80;;;1.90;;
5355;SDS011;70449;52.486;13.386;2024-01-15T09:41:41;7.90;;;1.90;;
5355;SDS011;70449;52.486;13.386;2024-01-15T09:44:09;6.00;;;2.07;;
5355;SDS011;70449;52.486;13.386;2024-01-15T09:46:38;10.70;;;2.07;;
5355;SDS011;70449;52.486;13.386;2024-01-15T09:49:06;4.80;;;2.20;;
5355;SDS011;70449;52.486;13.386;2024-01-15T09:51:35;5.40;;;2.00;;
5355;SDS011;70449;52.486;13.386;2024-01-15T09:54:03;6.43;;;1.80;;
5355;SDS011;70449;52.486;13.386;2024-01-15T09:56:31;8.70;;;2.83;;
5355;SDS011;70449;52.486;13.386;2024-01-15T09:58:58;3.17;;;1.73;;
5355;SDS011;70449;52.486;13.386;2024-01-15T10:01:27;2.63;;;1.37;;
5355;SDS011;70449;52.486;13.386;2024-01-15T10:03:55;11.53;;;2.50;;
5355;SDS011;70449;52.486;13.386;2024-01-15T10:06:22;3.57;;;1.70;;
5355;SDS011;70449;52.486;13.386;2024-01-15T10:08:51;8.13;;;1.83;;
5355;SDS011;70449;52.486;13.386;2024-01-15T10:11:19;11.50;;;2.80;;
5355;SDS011;70449;52.486;13.386;2024-01-15T10:13:47;1.50;;;1.40;;
5355;SDS011;70449;52.486;13.386;2024-01-15T10:16:17;3.60;;;1.70;;
5355;SDS011;70449;52.486;13.386;2024-01-15T10:18:44;7.73;;;1.60;;
5355;SDS011;70449;52.486;13.386;2024-01-15T10:21:11;5.93;;;2.23;;
5355;SDS011;70449;52.486;13.386;2024-01-15T10:23:40;6.50;;;2.13;;
5355;SDS011;70449;52.486;13.386;2024-01-15T10:26:09;4.70;;;2.03;;
5355;SDS011;70449;52.486;13.386;2024-01-15T10:28:37;2.43;;;1.17;;
5355;SDS011;70449;52.486;13.386;2024-01-15T10:31:04;8.50;;;1.90;;
5355;SDS011;70449;52.486;13.386;2024-01-15T10:33:32;4.10;;;1.80;;
5355;SDS011;70449;52.486;13.386;2024-01-15T10:35:59;5.10;;;1.80;;
5355;SDS011;70449;52.486;13.386;2024-01-15T10:38:27;4.60;;;1.90;;
5355;SDS011;70449;52.486;13.386;2024-01-15T10:40:55;3.77;;;1.80;;
5355;SDS011;70449;52.486;13.386;2024-01-15T10:43:24;1.37;;;1.27;;
5355;SDS011;70449;52.486;13.386;2024-01-15T10:45:51;1.53;;;1.37;;
5355;SDS011;70449;52.486;13.386;2024-01-15T10:48:19;2.63;;;1.50;;
5355;SDS011;70449;52.486;13.386;2024-01-15T10:50:46;3.67;;;1.40;;
5355;SDS011;70449;52.486;13.386;2024-01-15T10:53:15;6.63;;;1.77;;
5355;SDS011;70449;52.486;13.386;2024-01-15T10:55:43;5.90;;;1.63;;
5355;SDS011;70449;52.486;13.386;2024-01-15T10:58:14;1.60;;;1.43;;
5355;SDS011;70449;52.486;13.386;2024-01-15T11:00:43;2.67;;;1.30;;
5355;SDS011;70449;52.486;13.386;2024-01-15T11:03:11;1.50;;;1.37;;
5355;SDS011;70449;52.486;13.386;2024-01-15T11:05:41;3.73;;;1.80;;
5355;SDS011;70449;52.486;13.386;2024-01-15T11:08:10;12.30;;;1.40;;
5355;SDS011;70449;52.486;13.386;2024-01-15T11:10:37;3.53;;;1.10;;
5355;SDS011;70449;52.486;13.386;2024-01-15T11:13:08;3.10;;;1.50;;
5355;SDS011;70449;52.486;13.386;2024-01-15T11:15:58;1.33;;;1.07;;
5355;SDS011;70449;52.486;13.386;2024-01-15T11:18:27;1.70;;;1.37;;
5355;SDS011;70449;52.486;13.386;2024-01-15T11:23:50;1.90;;;1.10;;
5355;SDS011;70449;52.486;13.386;2024-01-15T11:26:29;1.97;;;1.27;;
5355;SDS011;70449;52.486;13.386;2024-01-15T11:29:01;3.03;;;1.53;;
5355;SDS011;70449;52.486;13.386;2024-01-15T11:37:27;6.33;;;1.60;;
5355;SDS011;70449;52.486;13.386;2024-01-15T11:40:17;4.93;;;2.50;;
5355;SDS011;70449;52.486;13.386;2024-01-15T11:42:45;1.73;;;1.53;;
5355;SDS011;70449;52.486;13.386;2024-01-15T11:45:13;2.23;;;1.57;;
5355;SDS011;70449;52.486;13.386;2024-01-15T11:48:06;2.33;;;1.27;;
5355;SDS011;70449;52.486;13.386;2024-01-15T11:50:39;1.90;;;1.30;;
5355;SDS011;70449;52.486;13.386;2024-01-15T11:53:12;1.53;;;1.43;;
5355;SDS011;70449;52.486;13.386;2024-01-15T11:55:52;5.03;;;2.53;;
5355;SDS011;70449;52.486;13.386;2024-01-15T11:58:23;4.00;;;1.90;;
5355;SDS011;70449;52.486;13.386;2024-01-15T12:00:50;1.37;;;1.27;;
5355;SDS011;70449;52.486;13.386;2024-01-15T12:03:21;10.67;;;1.50;;
5355;SDS011;70449;52.486;13.386;2024-01-15T12:05:49;1.93;;;1.80;;
5355;SDS011;70449;52.486;13.386;2024-01-15T12:08:20;3.60;;;1.73;;
5355;SDS011;70449;52.486;13.386;2024-01-15T12:10:48;2.20;;;1.83;;
5355;SDS011;70449;52.486;13.386;2024-01-15T12:13:16;1.30;;;1.20;;
5355;SDS011;70449;52.486;13.386;2024-01-15T12:15:44;2.27;;;1.50;;
5355;SDS011;70449;52.486;13.386;2024-01-15T12:18:13;1.43;;;1.33;;
5355;SDS011;70449;52.486;13.386;2024-01-15T12:20:43;1.80;;;1.30;;
5355;SDS011;70449;52.486;13.386;2024-01-15T12:23:12;4.07;;;1.70;;
5355;SDS011;70449;52.486;13.386;2024-01-15T12:25:40;2.80;;;1.50;;
5355;SDS011;70449;52.486;13.386;2024-01-15T12:28:08;2.50;;;1.57;;
5355;SDS011;70449;52.486;13.386;2024-01-15T12:30:36;1.70;;;1.60;;
5355;SDS011;70449;52.486;13.386;2024-01-15T12:33:03;1.37;;;1.27;;
5355;SDS011;70449;52.486;13.386;2024-01-15T12:35:33;2.57;;;2.37;;
5355;SDS011;70449;52.486;13.386;2024-01-15T12:38:02;2.37;;;1.40;;
5355;SDS011;70449;52.486;13.386;2024-01-15T12:40:31;18.17;;;2.03;;
5355;SDS011;70449;52.486;13.386;2024-01-15T12:42:59;1.20;;;1.10;;
5355;SDS011;70449;52.486;13.386;2024-01-15T12:45:26;1.23;;;1.13;;
5355;SDS011;70449;52.486;13.386;2024-01-15T12:47:54;1.10;;;1.10;;
5355;SDS011;70449;52.486;13.386;2024-01-15T12:50:23;1.57;;;1.20;;
5355;SDS011;70449;52.486;13.386;2024-01-15T12:52:51;1.40;;;1.30;;
5355;SDS011;70449;52.486;13.386;2024-01-15T12:55:20;2.30;;;1.60;;
5355;SDS011;70449;52.486;13.386;2024-01-15T12:57:47;1.97;;;1.43;;
5355;SDS011;70449;52.486;13.386;2024-01-15T13:00:19;2.30;;;2.00;;
5355;SDS011;70449;52.486;13.386;2024-01-15T13:02:46;3.50;;;2.60;;
5355;SDS011;70449;52.486;13.386;2024-01-15T13:05:14;1.43;;;1.30;;
5355;SDS011;70449;52.486;13.386;2024-01-15T13:07:43;4.03;;;1.40;;
5355;SDS011;70449;52.486;13.386;2024-01-15T13:10:10;1.40;;;1.30;;
5355;SDS011;70449;52.486;13.386;2024-01-15T13:12:40;5.70;;;1.60;;
5355;SDS011;70449;52.486;13.386;2024-01-15T13:15:08;1.43;;;1.13;;
5355;SDS011;70449;52.486;13.386;2024-01-15T13:17:36;3.73;;;1.90;;
5355;SDS011;70449;52.486;13.386;2024-01-15T13:20:05;2.57;;;1.90;;
5355;SDS011;70449;52.486;13.386;2024-01-15T13:22:34;2.17;;;1.80;;
5355;SDS011;70449;52.486;13.386;2024-01-15T13:25:01;1.90;;;1.80;;
5355;SDS011;70449;52.486;13.386;2024-01-15T13:27:29;4.13;;;2.10;;
5355;SDS011;70449;52.486;13.386;2024-01-15T13:29:58;3.27;;;1.70;;
5355;SDS011;70449;52.486;13.386;2024-01-15T13:32:25;2.40;;;1.80;;
5355;SDS011;70449;52.486;13.386;2024-01-15T13:34:55;2.87;;;1.30;;
5355;SDS011;70449;52.486;13.386;2024-01-15T13:37:23;2.23;;;1.30;;
5355;SDS011;70449;52.486;13.386;2024-01-15T13:39:50;1.60;;;1.50;;
5355;SDS011;70449;52.486;13.386;2024-01-15T13:42:17;1.53;;;1.43;;
5355;SDS011;70449;52.486;13.386;2024-01-15T13:44:46;2.97;;;1.30;;
5355;SDS011;70449;52.486;13.386;2024-01-15T13:47:15;3.87;;;2.47;;
5355;SDS011;70449;52.486;13.386;2024-01-15T13:49:43;1.80;;;1.30;;
5355;SDS011;70449;52.486;13.386;2024-01-15T13:52:10;2.43;;;1.30;;
5355;SDS011;70449;52.486;13.386;2024-01-15T13:54:38;7.73;;;2.00;;
5355;SDS011;70449;52.486;13.386;2024-01-15T13:57:06;4.50;;;1.57;;
5355;SDS011;70449;52.486;13.386;2024-01-15T13:59:37;4.90;;;1.93;;
5355;SDS011;70449;52.486;13.386;2024-01-15T14:02:05;2.90;;;1.50;;
5355;SDS011;70449;52.486;13.386;2024-01-15T14:04:34;3.83;;;1.30;;
5355;SDS011;70449;52.486;13.386;2024-01-15T14:07:01;1.43;;;1.17;;
5355;SDS011;70449;52.486;13.386;2024-01-15T14:09:31;3.50;;;1.73;;
5355;SDS011;70449;52.486;13.386;2024-01-15T14:11:58;5.90;;;1.70;;
5355;SDS011;70449;52.486;13.386;2024-01-15T14:14:26;1.87;;;1.70;;
5355;SDS011;70449;52.486;13.386;2024-01-15T14:16:54;1.53;;;1.17;;
5355;SDS011;70449;52.486;13.386;2024-01-15T14:19:21;3.33;;;1.30;;
5355;SDS011;70449;52.486;13.386;2024-01-15T14:21:51;4.20;;;1.53;;
5355;SDS011;70449;52.486;13.386;2024-01-15T14:24:19;3.77;;;1.40;;
5355;SDS011;70449;52.486;13.386;2024-01-15T14:26:46;1.53;;;1.20;;
5355;SDS011;70449;52.486;13.386;2024-01-15T14:29:22;3.80;;;1.80;;
5355;SDS011;70449;52.486;13.386;2024-01-15T14:31:51;3.73;;;1.63;;
5355;SDS011;70449;52.486;13.386;2024-01-15T14:34:21;1.90;;;1.50;;
5355;SDS011;70449;52.486;13.386;2024-01-15T14:36:51;1.90;;;1.33;;
5355;SDS011;70449;52.486;13.386;2024-01-15T14:39:20;4.30;;;1.83;;
5355;SDS011;70449;52.486;13.386;2024-01-15T14:41:50;8.83;;;2.10;;
5355;SDS011;70449;52.486;13.386;2024-01-15T14:44:22;11.30;;;2.10;;
5355;SDS011;70449;52.486;13.386;2024-01-15T14:46:49;3.13;;;1.30;;
5355;SDS011;70449;52.486;13.386;2024-01-15T14:49:17;11.03;;;1.73;;
5355;SDS011;70449;52.486;13.386;2024-01-15T14:51:44;4.43;;;1.40;;
5355;SDS011;70449;52.486;13.386;2024-01-15T14:54:15;5.70;;;1.73;;
5355;SDS011;70449;52.486;13.386;2024-01-15T14:56:43;1.87;;;1.53;;